createdAt,value
2022-11-23T00:00:37.193Z,81.38
2022-11-23T00:03:04.326Z,81.16
2022-11-23T00:05:31.744Z,81.36
2022-11-23T00:07:58.831Z,81.43
2022-11-23T00:10:25.872Z,81.21
2022-11-23T00:12:52.892Z,81.42
2022-11-23T00:15:19.991Z,81.19
2022-11-23T00:17:48.395Z,81.21
2022-11-23T00:20:15.463Z,81.41
2022-11-23T00:22:42.441Z,81.42
2022-11-23T00:25:09.710Z,81.47
2022-11-23T00:27:36.595Z,81.27
2022-11-23T00:30:04.584Z,81.18
2022-11-23T00:32:31.511Z,81.31
2022-11-23T00:34:58.644Z,81.46
2022-11-23T00:37:25.524Z,81.35
2022-11-23T00:39:54.905Z,81.41
2022-11-23T00:42:21.932Z,81.28
2022-11-23T00:44:48.817Z,81.30
2022-11-23T00:47:15.753Z,81.31
2022-11-23T00:49:42.731Z,81.56
2022-11-23T00:52:10.104Z,81.60
2022-11-23T00:54:37.514Z,81.42
2022-11-23T00:57:04.434Z,81.69
2022-11-23T00:59:31.879Z,81.30
2022-11-23T01:02:00.329Z,81.46
2022-11-23T01:04:27.422Z,81.38
2022-11-23T01:06:57.955Z,81.46
2022-11-23T01:09:26.979Z,81.63
2022-11-23T01:11:54.633Z,81.70
2022-11-23T01:14:24.207Z,81.51
2022-11-23T01:16:51.313Z,81.40
2022-11-23T01:19:19.761Z,81.41
2022-11-23T01:21:50.411Z,81.34
2022-11-23T01:24:19.612Z,81.70
2022-11-23T01:26:46.901Z,81.34
2022-11-23T01:29:13.935Z,81.54
2022-11-23T01:31:46.211Z,81.56
2022-11-23T01:34:14.862Z,81.49
2022-11-23T01:36:42.583Z,81.32
2022-11-23T01:39:11.246Z,81.72
2022-11-23T01:41:40.073Z,81.31
2022-11-23T01:44:27.250Z,81.46
2022-11-23T01:46:57.189Z,81.45
2022-11-23T01:49:24.464Z,81.43
2022-11-23T01:51:53.824Z,81.74
2022-11-23T01:54:44.923Z,81.33
2022-11-23T01:57:18.778Z,81.56
2022-11-23T01:59:47.128Z,81.39
2022-11-23T02:02:15.151Z,81.53
2022-11-23T02:04:45.244Z,81.70
2022-11-23T02:07:15.297Z,81.55
2022-11-23T02:09:45.425Z,81.74
2022-11-23T02:12:13.466Z,81.51
2022-11-23T02:14:41.543Z,81.32
2022-11-23T02:17:09.303Z,81.68
2022-11-23T02:20:04.662Z,81.56
2022-11-23T02:22:59.492Z,81.73
2022-11-23T02:25:45.385Z,81.74
2022-11-23T02:28:17.283Z,81.44
2022-11-23T02:30:58.083Z,81.58
2022-11-23T02:33:25.567Z,81.73
2022-11-23T02:35:55.084Z,81.22
2022-11-23T02:38:25.901Z,81.85
2022-11-23T02:40:53.144Z,81.85
2022-11-23T02:43:22.441Z,81.76
2022-11-23T02:46:00.341Z,81.52
2022-11-23T02:48:27.551Z,81.54
2022-11-23T02:50:54.844Z,81.50
2022-11-23T02:53:21.906Z,81.72
2022-11-23T02:55:48.923Z,81.50
2022-11-23T02:58:17.802Z,81.60
2022-11-23T03:00:46.663Z,81.36
2022-11-23T03:03:13.663Z,81.58
2022-11-23T03:05:40.688Z,81.61
2022-11-23T03:08:07.702Z,81.64
2022-11-23T03:10:35.010Z,81.59
2022-11-23T03:13:02.041Z,81.63
2022-11-23T03:15:33.400Z,81.46
2022-11-23T03:18:04.047Z,81.59
2022-11-23T03:20:32.189Z,81.59
2022-11-23T03:22:59.290Z,81.40
2022-11-23T03:25:27.105Z,81.51
2022-11-23T03:27:56.484Z,81.41
2022-11-23T03:30:23.903Z,81.59
2022-11-23T03:32:51.065Z,82.05
2022-11-23T03:35:19.324Z,81.45
2022-11-23T03:38:06.509Z,81.73
2022-11-23T03:40:33.845Z,81.55
2022-11-23T03:43:15.580Z,81.54
2022-11-23T03:45:43.383Z,81.39
2022-11-23T03:48:10.384Z,81.78
2022-11-23T03:50:37.509Z,81.58
2022-11-23T03:53:04.906Z,81.36
2022-11-23T03:55:33.926Z,81.73
2022-11-23T03:58:02.305Z,81.60
2022-11-23T04:00:33.299Z,81.60
2022-11-23T04:03:00.306Z,81.51
2022-11-23T04:05:47.513Z,81.46
2022-11-23T04:08:33.257Z,81.69
2022-11-23T04:11:00.710Z,81.59
2022-11-23T04:13:41.949Z,81.61
2022-11-23T04:16:09.443Z,81.77
2022-11-23T04:18:37.704Z,81.64
2022-11-23T04:21:05.544Z,81.67
2022-11-23T04:23:32.485Z,81.70
2022-11-23T04:26:00.342Z,81.44
2022-11-23T04:28:29.225Z,81.74
2022-11-23T04:30:58.866Z,81.78
2022-11-23T04:33:27.167Z,81.67
2022-11-23T04:35:54.361Z,81.43
2022-11-23T04:38:21.621Z,81.53
2022-11-23T04:40:49.500Z,81.54
2022-11-23T04:43:16.583Z,81.64
2022-11-23T04:45:44.733Z,81.55
2022-11-23T04:48:20.760Z,81.53
2022-11-23T04:50:50.884Z,81.64
2022-11-23T04:53:27.823Z,81.75
2022-11-23T04:55:55.368Z,81.67
2022-11-23T04:58:23.263Z,81.52
2022-11-23T05:00:55.727Z,81.76
2022-11-23T05:03:22.924Z,81.77
2022-11-23T05:05:49.928Z,81.69
2022-11-23T05:08:17.146Z,81.82
2022-11-23T05:10:54.363Z,81.65
2022-11-23T05:13:21.761Z,81.55
2022-11-23T05:15:49.714Z,81.69
2022-11-23T05:18:21.312Z,81.62
2022-11-23T05:20:50.209Z,81.83
2022-11-23T05:23:17.660Z,82.04
2022-11-23T05:25:45.982Z,81.75
2022-11-23T05:28:39.062Z,81.80
2022-11-23T05:31:05.886Z,81.68
2022-11-23T05:33:33.061Z,81.81
2022-11-23T05:36:01.919Z,81.71
2022-11-23T05:38:36.325Z,81.96
2022-11-23T05:41:08.266Z,82.04
2022-11-23T05:43:37.726Z,81.99
2022-11-23T05:46:06.671Z,82.08
2022-11-23T05:48:35.426Z,81.92
2022-11-23T05:51:08.592Z,82.01
2022-11-23T05:53:39.583Z,81.88
2022-11-23T05:56:19.303Z,81.94
2022-11-23T05:59:05.517Z,81.90
2022-11-23T06:01:35.784Z,81.98
2022-11-23T06:04:06.857Z,82.06
2022-11-23T06:06:39.812Z,81.85
2022-11-23T06:09:07.026Z,82.24
2022-11-23T06:11:36.271Z,82.02
2022-11-23T06:14:13.900Z,82.09
2022-11-23T06:16:42.203Z,82.05
2022-11-23T06:19:41.104Z,82.06
2022-11-23T06:22:08.981Z,82.28
2022-11-23T06:24:43.486Z,82.12
2022-11-23T06:27:32.109Z,82.26
2022-11-23T06:30:01.865Z,82.17
2022-11-23T06:32:31.483Z,82.09
2022-11-23T06:35:01.098Z,82.23
2022-11-23T06:37:31.053Z,82.25
2022-11-23T06:39:58.143Z,82.24
2022-11-23T06:42:41.558Z,82.52
2022-11-23T06:45:20.407Z,82.26
2022-11-23T06:47:51.029Z,82.42
2022-11-23T06:50:18.128Z,82.45
2022-11-23T06:52:47.723Z,82.47
2022-11-23T06:55:15.722Z,82.30
2022-11-23T06:57:42.951Z,82.47
2022-11-23T07:00:12.587Z,82.29
2022-11-23T07:02:39.687Z,82.44
2022-11-23T07:05:07.133Z,82.53
2022-11-23T07:07:36.575Z,82.52
2022-11-23T07:10:20.130Z,82.76
2022-11-23T07:12:51.364Z,82.68
2022-11-23T07:15:21.242Z,82.64
2022-11-23T07:17:51.772Z,82.66
2022-11-23T07:20:21.221Z,82.79
2022-11-23T07:22:48.369Z,82.66
2022-11-23T07:25:19.265Z,82.82
2022-11-23T07:27:46.445Z,82.81
2022-11-23T07:30:14.160Z,82.80
2022-11-23T07:32:41.293Z,82.80
2022-11-23T07:35:08.830Z,82.63
2022-11-23T07:37:38.876Z,82.86
2022-11-23T07:40:07.335Z,82.79
2022-11-23T07:42:41.520Z,82.88
2022-11-23T07:45:12.273Z,82.77
2022-11-23T07:47:44.506Z,82.76
2022-11-23T07:50:13.014Z,82.95
2022-11-23T07:52:41.329Z,82.71
2022-11-23T07:55:08.999Z,82.75
2022-11-23T07:57:36.109Z,82.96
2022-11-23T08:00:04.178Z,82.86
2022-11-23T08:02:52.806Z,82.90
2022-11-23T08:05:26.808Z,82.83
2022-11-23T08:08:00.729Z,83.00
2022-11-23T08:10:29.010Z,82.92
2022-11-23T08:13:03.408Z,82.94
2022-11-23T08:15:30.628Z,83.00
2022-11-23T08:17:59.880Z,83.01
2022-11-23T08:20:28.037Z,83.13
2022-11-23T08:22:56.109Z,82.95
2022-11-23T08:25:27.959Z,83.07
2022-11-23T08:27:56.053Z,82.82
2022-11-23T08:30:23.172Z,83.05
2022-11-23T08:32:50.195Z,82.98
2022-11-23T08:35:17.335Z,82.85
2022-11-23T08:37:44.341Z,83.12
2022-11-23T08:40:12.164Z,83.10
2022-11-23T08:42:39.181Z,83.12
2022-11-23T08:45:07.163Z,82.94
2022-11-23T08:47:34.508Z,82.87
2022-11-23T08:50:01.644Z,83.20
2022-11-23T08:52:28.586Z,83.07
2022-11-23T08:54:55.632Z,82.97
2022-11-23T08:57:22.775Z,82.92
2022-11-23T08:59:49.770Z,83.00
2022-11-23T09:02:16.941Z,83.19
2022-11-23T09:04:44.060Z,83.26
2022-11-23T09:07:11.303Z,82.94
2022-11-23T09:09:38.400Z,82.92
2022-11-23T09:12:06.496Z,83.10
2022-11-23T09:14:33.897Z,83.05
2022-11-23T09:17:02.600Z,83.10
2022-11-23T09:19:29.820Z,82.80
2022-11-23T09:21:58.129Z,82.83
2022-11-23T09:24:26.025Z,82.91
2022-11-23T09:26:53.061Z,83.21
2022-11-23T09:29:20.119Z,82.96
2022-11-23T09:31:47.233Z,83.26
2022-11-23T09:34:14.472Z,83.23
2022-11-23T09:36:41.569Z,82.97
2022-11-23T09:39:08.943Z,82.90
2022-11-23T09:41:57.771Z,82.93
2022-11-23T09:44:34.615Z,83.00
2022-11-23T09:47:43.061Z,83.08
2022-11-23T09:50:53.215Z,83.05
2022-11-23T09:53:22.242Z,82.87
2022-11-23T09:55:52.187Z,83.27
2022-11-23T09:58:21.603Z,82.85
2022-11-23T10:01:02.086Z,83.03
2022-11-23T10:03:29.835Z,82.78
2022-11-23T10:05:59.620Z,83.20
2022-11-23T10:09:01.099Z,82.79
2022-11-23T10:12:06.064Z,82.76
2022-11-23T10:14:57.482Z,82.66
2022-11-23T10:17:45.820Z,82.88
2022-11-23T10:20:49.502Z,83.11
2022-11-23T10:23:16.642Z,83.07
2022-11-23T10:25:50.721Z,83.07
2022-11-23T10:28:21.260Z,83.04
2022-11-23T10:30:54.401Z,82.54
2022-11-23T10:33:36.762Z,82.88
2022-11-23T10:36:04.140Z,83.04
2022-11-23T10:38:32.800Z,82.61
2022-11-23T10:41:15.640Z,82.80
2022-11-23T10:43:58.521Z,82.67
2022-11-23T10:46:45.863Z,82.64
2022-11-23T10:49:29.081Z,82.87
2022-11-23T10:52:33.966Z,82.74
2022-11-23T10:55:04.120Z,83.03
2022-11-23T10:57:34.064Z,82.74
2022-11-23T11:00:14.622Z,83.04
2022-11-23T11:02:47.461Z,82.56
2022-11-23T11:08:25.947Z,82.48
2022-11-23T11:11:05.300Z,82.31
2022-11-23T11:13:52.600Z,82.69
2022-11-23T11:16:31.002Z,82.76
2022-11-23T11:18:58.601Z,82.20
2022-11-23T11:21:31.560Z,82.20
2022-11-23T11:24:02.202Z,82.41
2022-11-23T11:26:31.162Z,82.39
2022-11-23T11:29:02.165Z,82.57
2022-11-23T11:31:39.720Z,82.40
2022-11-23T11:34:12.780Z,82.57
2022-11-23T11:36:45.980Z,82.42
2022-11-23T11:39:26.382Z,82.68
2022-11-23T11:41:54.882Z,82.28
2022-11-23T11:44:26.134Z,82.52
2022-11-23T11:46:58.660Z,82.37
2022-11-23T11:49:30.548Z,82.39
2022-11-23T11:52:09.316Z,82.12
2022-11-23T11:54:43.001Z,82.46
2022-11-23T11:57:18.227Z,82.33
2022-11-23T11:59:53.023Z,82.11
2022-11-23T12:02:28.755Z,82.11
2022-11-23T12:05:33.074Z,82.40
2022-11-23T12:08:25.881Z,82.33
2022-11-23T12:10:55.773Z,82.19
2022-11-23T12:13:25.119Z,81.97
2022-11-23T12:16:33.960Z,82.18
2022-11-23T12:19:06.507Z,82.29
2022-11-23T12:21:56.506Z,81.85
2022-11-23T12:25:00.980Z,81.78
2022-11-23T12:27:55.211Z,81.92
2022-11-23T12:31:23.863Z,81.93
2022-11-23T12:34:12.260Z,81.66
2022-11-23T12:37:17.979Z,82.13
2022-11-23T12:40:07.423Z,82.08
2022-11-23T12:42:45.101Z,82.05
2022-11-23T12:45:25.381Z,81.92
2022-11-23T12:48:02.137Z,81.93
2022-11-23T12:50:57.106Z,82.09
2022-11-23T12:53:39.477Z,81.71
2022-11-23T12:56:09.469Z,81.62
2022-11-23T12:58:37.941Z,81.82
2022-11-23T13:01:18.206Z,81.80
2022-11-23T13:04:21.911Z,81.88
2022-11-23T13:07:39.987Z,81.85
2022-11-23T13:10:32.656Z,81.55
2022-11-23T13:13:15.961Z,81.52
2022-11-23T13:15:55.991Z,81.76
2022-11-23T13:18:49.252Z,81.77
2022-11-23T13:21:45.143Z,81.42
2022-11-23T13:24:32.181Z,81.72
2022-11-23T13:27:17.862Z,81.76
2022-11-23T13:29:51.008Z,81.68
2022-11-23T13:32:39.809Z,81.70
2022-11-23T13:35:19.069Z,81.56
2022-11-23T13:37:58.205Z,81.76
2022-11-23T13:40:36.421Z,81.56
2022-11-23T13:43:18.019Z,81.33
2022-11-23T13:45:45.667Z,81.39
2022-11-23T13:48:49.081Z,81.35
2022-11-23T13:51:06.077Z,81.53
2022-11-23T13:53:44.143Z,81.68
2022-11-23T13:56:31.383Z,81.34
2022-11-23T13:59:18.361Z,81.22
2022-11-23T14:02:08.942Z,81.70
2022-11-23T14:04:41.437Z,81.32
2022-11-23T14:07:32.287Z,81.38
2022-11-23T14:10:21.932Z,81.16
2022-11-23T14:12:55.529Z,81.20
2022-11-23T14:15:25.147Z,81.50
2022-11-23T14:18:32.063Z,81.29
2022-11-23T14:21:07.542Z,81.41
2022-11-23T14:23:45.740Z,81.32
2022-11-23T14:26:42.412Z,81.55
2022-11-23T14:29:46.680Z,81.11
2022-11-23T14:32:40.395Z,81.13
2022-11-23T14:35:20.470Z,81.06
2022-11-23T14:38:00.823Z,81.17
2022-11-23T14:41:02.780Z,81.21
2022-11-23T14:43:36.196Z,81.09
2022-11-23T14:46:05.157Z,81.21
2022-11-23T14:48:34.722Z,81.20
2022-11-23T14:51:07.117Z,81.28
2022-11-23T14:53:47.013Z,81.34
2022-11-23T14:56:26.282Z,81.19
2022-11-23T14:58:55.942Z,81.33
2022-11-23T15:01:25.510Z,81.53
2022-11-23T15:04:00.306Z,81.21
2022-11-23T15:06:31.251Z,81.28
2022-11-23T15:09:25.422Z,80.99
2022-11-23T15:12:25.623Z,81.34
2022-11-23T15:14:54.223Z,81.23
2022-11-23T15:17:22.733Z,81.05
2022-11-23T15:20:02.688Z,81.17
2022-11-23T15:22:31.261Z,81.31
2022-11-23T15:25:16.550Z,81.11
2022-11-23T15:27:43.691Z,81.21
2022-11-23T15:30:30.618Z,81.18
2022-11-23T15:33:04.059Z,81.10
2022-11-23T15:35:34.032Z,81.38
2022-11-23T15:38:02.132Z,81.09
2022-11-23T15:40:33.108Z,81.58
2022-11-23T15:43:00.441Z,81.36
2022-11-23T15:45:39.895Z,81.22
2022-11-23T15:48:30.903Z,81.29
2022-11-23T15:51:05.700Z,81.27
2022-11-23T15:53:52.866Z,81.29
2022-11-23T15:56:28.869Z,81.33
2022-11-23T15:58:57.658Z,81.11
2022-11-23T16:01:25.141Z,81.34
2022-11-23T16:03:55.829Z,81.49
2022-11-23T16:06:35.885Z,81.19
2022-11-23T16:09:17.429Z,81.47
2022-11-23T16:11:51.570Z,81.58
2022-11-23T16:14:21.377Z,81.33
2022-11-23T16:17:05.647Z,81.19
2022-11-23T16:19:35.673Z,81.37
2022-11-23T16:22:07.642Z,81.50
2022-11-23T16:24:36.533Z,81.03
2022-11-23T16:27:13.456Z,81.28
2022-11-23T16:29:40.821Z,81.35
2022-11-23T16:32:23.505Z,81.12
2022-11-23T16:34:51.069Z,81.13
2022-11-23T16:37:18.729Z,81.23
2022-11-23T16:39:45.843Z,81.56
2022-11-23T16:42:14.827Z,81.28
2022-11-23T16:44:43.287Z,81.39
2022-11-23T16:47:27.232Z,81.55
2022-11-23T16:49:54.882Z,81.40
2022-11-23T16:52:23.014Z,81.69
2022-11-23T16:54:51.043Z,81.16
2022-11-23T16:57:32.208Z,81.68
2022-11-23T17:00:02.557Z,81.17
2022-11-23T17:02:29.662Z,81.40
2022-11-23T17:04:56.750Z,81.46
2022-11-23T17:07:23.801Z,81.30
2022-11-23T17:09:50.886Z,81.36
2022-11-23T17:12:19.069Z,81.31
2022-11-23T17:14:48.555Z,81.45
2022-11-23T17:17:22.941Z,81.35
2022-11-23T17:19:51.082Z,81.42
2022-11-23T17:22:20.412Z,81.47
2022-11-23T17:24:48.241Z,81.58
2022-11-23T17:27:24.889Z,81.54
2022-11-23T17:29:57.588Z,81.51
2022-11-23T17:32:25.230Z,81.56
2022-11-23T17:34:52.217Z,81.69
2022-11-23T17:37:21.721Z,81.59
2022-11-23T17:39:49.368Z,81.64
2022-11-23T17:42:16.727Z,81.40
2022-11-23T17:44:43.842Z,81.58
2022-11-23T17:47:25.300Z,81.51
2022-11-23T17:49:53.013Z,81.58
2022-11-23T17:52:20.250Z,81.58
2022-11-23T17:54:47.343Z,81.90
2022-11-23T17:57:19.070Z,81.60
2022-11-23T17:59:46.254Z,81.89
2022-11-23T18:02:13.310Z,81.96
2022-11-23T18:04:40.441Z,81.82
2022-11-23T18:07:07.873Z,81.57
2022-11-23T18:09:35.396Z,81.61
2022-11-23T18:12:02.800Z,81.54
2022-11-23T18:14:30.181Z,82.01
2022-11-23T18:16:57.381Z,81.66
2022-11-23T18:19:24.543Z,81.61
2022-11-23T18:21:51.842Z,81.63
2022-11-23T18:24:18.921Z,81.96
2022-11-23T18:26:46.061Z,82.04
2022-11-23T18:29:17.027Z,82.01
2022-11-23T18:31:44.723Z,81.87
2022-11-23T18:34:11.852Z,81.73
2022-11-23T18:36:38.887Z,81.83
2022-11-23T18:39:06.679Z,82.10
2022-11-23T18:41:33.687Z,82.15
2022-11-23T18:44:00.905Z,82.04
2022-11-23T18:46:30.071Z,81.96
2022-11-23T18:48:57.733Z,82.24
2022-11-23T18:51:25.113Z,81.87
2022-11-23T18:53:56.401Z,82.06
2022-11-23T18:56:26.118Z,82.00
2022-11-23T18:58:55.579Z,82.05
2022-11-23T19:01:24.962Z,82.01
2022-11-23T19:03:54.805Z,82.13
2022-11-23T19:06:24.728Z,81.85
2022-11-23T19:08:56.159Z,81.93
2022-11-23T19:11:26.194Z,81.85
2022-11-23T19:13:58.662Z,82.19
2022-11-23T19:16:30.147Z,82.04
2022-11-23T19:19:03.093Z,82.29
2022-11-23T19:21:35.043Z,82.00
2022-11-23T19:24:05.714Z,82.22
2022-11-23T19:26:34.597Z,81.99
2022-11-23T19:29:05.947Z,82.12
2022-11-23T19:31:34.957Z,82.02
2022-11-23T19:34:05.866Z,81.99
2022-11-23T19:36:36.569Z,82.02
2022-11-23T19:39:05.195Z,82.25
2022-11-23T19:41:32.399Z,82.01
2022-11-23T19:44:00.489Z,82.23
2022-11-23T19:46:29.247Z,82.15
2022-11-23T19:48:57.563Z,82.18
2022-11-23T19:51:25.451Z,81.98
2022-11-23T19:53:52.589Z,81.95
2022-11-23T19:56:24.476Z,82.17
2022-11-23T19:58:52.266Z,82.16
2022-11-23T20:01:21.632Z,82.06
2022-11-23T20:03:51.024Z,82.25
2022-11-23T20:06:26.936Z,81.99
2022-11-23T20:09:01.828Z,82.24
2022-11-23T20:11:30.629Z,82.07
2022-11-23T20:13:57.727Z,82.30
2022-11-23T20:16:26.159Z,82.07
2022-11-23T20:18:59.141Z,81.91
2022-11-23T20:21:27.555Z,82.20
2022-11-23T20:24:01.461Z,82.25
2022-11-23T20:26:32.323Z,82.14
2022-11-23T20:28:59.496Z,82.34
2022-11-23T20:31:29.103Z,82.01
2022-11-23T20:33:56.766Z,82.28
2022-11-23T20:36:25.897Z,82.12
2022-11-23T20:38:53.713Z,82.21
2022-11-23T20:41:34.481Z,82.32
2022-11-23T20:44:08.273Z,82.22
2022-11-23T20:47:00.632Z,82.37
2022-11-23T20:49:24.304Z,82.40
2022-11-23T20:51:52.646Z,82.24
2022-11-23T20:54:21.099Z,82.42
2022-11-23T20:56:50.597Z,82.16
2022-11-23T20:59:20.848Z,82.20
2022-11-23T21:01:48.403Z,82.45
2022-11-23T21:04:15.585Z,82.30
2022-11-23T21:06:43.683Z,82.32
2022-11-23T21:09:11.591Z,82.26
2022-11-23T21:11:57.215Z,82.48
2022-11-23T21:14:28.166Z,82.46
2022-11-23T21:16:58.440Z,82.42
2022-11-23T21:19:31.242Z,82.32
2022-11-23T21:21:59.701Z,82.51
2022-11-23T21:24:28.174Z,82.71
2022-11-23T21:26:55.248Z,82.54
2022-11-23T21:29:22.780Z,82.35
2022-11-23T21:31:50.355Z,82.43
2022-11-23T21:34:23.100Z,82.50
2022-11-23T21:36:50.760Z,82.51
2022-11-23T21:39:18.417Z,82.39
2022-11-23T21:41:46.362Z,82.52
2022-11-23T21:44:13.476Z,82.59
2022-11-23T21:46:41.614Z,82.58
2022-11-23T21:49:09.273Z,82.66
2022-11-23T21:51:37.184Z,82.54
2022-11-23T21:54:07.445Z,82.56
2022-11-23T21:56:34.493Z,82.59
2022-11-23T21:59:02.212Z,82.71
2022-11-23T22:07:22.406Z,82.71
2022-11-23T22:09:49.614Z,82.62
2022-11-23T22:12:16.683Z,82.84
2022-11-23T22:14:43.783Z,82.57
2022-11-23T22:17:10.822Z,82.76
2022-11-23T22:19:38.046Z,82.71
2022-11-23T22:22:07.536Z,82.91
2022-11-23T22:24:35.017Z,82.72
2022-11-23T22:27:02.298Z,82.63
2022-11-23T22:29:29.464Z,82.57
2022-11-23T22:31:56.618Z,82.70
2022-11-23T22:34:23.782Z,82.88
2022-11-23T22:36:51.666Z,82.72
2022-11-23T22:39:18.730Z,82.81
2022-11-23T22:41:45.810Z,82.69
2022-11-23T22:44:12.863Z,82.76
2022-11-23T22:46:40.144Z,82.85
2022-11-23T22:49:07.590Z,82.64
2022-11-23T22:51:34.883Z,82.95
2022-11-23T22:54:02.676Z,83.04
2022-11-23T22:56:31.043Z,82.75
2022-11-23T22:58:58.856Z,83.06
2022-11-23T23:01:28.902Z,83.00
2022-11-23T23:03:58.077Z,82.89
2022-11-23T23:06:27.566Z,82.84
2022-11-23T23:08:56.792Z,83.05
2022-11-23T23:11:25.103Z,82.84
2022-11-23T23:13:52.771Z,82.84
2022-11-23T23:16:20.171Z,83.04
2022-11-23T23:18:47.353Z,83.00
2022-11-23T23:21:19.082Z,82.91
2022-11-23T23:23:47.077Z,82.97
2022-11-23T23:26:16.172Z,83.05
2022-11-23T23:28:43.508Z,83.19
2022-11-23T23:31:12.784Z,82.96
2022-11-23T23:33:40.077Z,82.92
2022-11-23T23:36:12.997Z,83.05
2022-11-23T23:38:40.684Z,82.65
2022-11-23T23:41:09.081Z,82.96
2022-11-23T23:43:36.940Z,82.82
2022-11-23T23:46:06.518Z,82.92
2022-11-23T23:48:35.960Z,82.95
2022-11-23T23:51:11.399Z,82.81
2022-11-23T23:53:39.258Z,83.03
2022-11-23T23:56:08.561Z,83.07
2022-11-23T23:58:35.864Z,82.92
